Terminal Aerodrome Forecast
Issued by NWS

Current Version | Previous Version | Graphics & Text | Print | Product List | Glossary On
Versions: 1 2 3 4 5 6 7 8 9 10 11 12 13 14 15 16 17
000
FTUS41 KRNK 312339
TAFLWB
TAF
KLWB 312339Z 0100/0124 29003KT 5SM -RA SCT007 OVC018
     FM010400 35003KT 3SM -RA BR OVC008
     FM010700 34004KT 3SM -RASN BR OVC007
     FM011500 01006KT 6SM -SHRA OVC012
     FM011900 35010G18KT P6SM SCT020 OVC030=

USA.gov is the U.S. government's official web portal to all federal, state and local government web resources and services.